sensor_id;sensor_type;location;lat;lon;timestamp;pressure;altitude;pressure_sealevel;temperature;humidity
49801;BME280;35698;50.232;30.540;2023-04-01T00:00:06;99168.42;;;13.47;100.00
49801;BME280;35698;50.232;30.540;2023-04-01T00:01:12;99158.95;;;13.85;100.00
49801;BME280;35698;50.232;30.540;2023-04-01T00:02:23;99160.92;;;14.02;100.00
49801;BME280;35698;50.232;30.540;2023-04-01T00:03:27;99157.13;;;13.85;100.00
49801;BME280;35698;50.232;30.540;2023-04-01T00:04:39;99155.62;;;14.02;100.00
49801;BME280;35698;50.232;30.540;2023-04-01T00:05:42;99160.63;;;13.95;100.00
49801;BME280;35698;50.232;30.540;2023-04-01T00:06:46;99165.23;;;13.93;100.00
49801;BME280;35698;50.232;30.540;2023-04-01T00:07:50;99166.91;;;13.94;100.00
49801;BME280;35698;50.232;30.540;2023-04-01T00:08:54;99164.25;;;13.94;100.00
49801;BME280;35698;50.232;30.540;2023-04-01T00:36:14;99167.34;;;13.99;100.00
49801;BME280;35698;50.232;30.540;2023-04-01T00:37:27;99144.62;;;13.66;100.00
49801;BME280;35698;50.232;30.540;2023-04-01T00:38:30;99141.13;;;13.66;100.00
49801;BME280;35698;50.232;30.540;2023-04-01T00:39:34;99142.24;;;13.63;100.00
49801;BME280;35698;50.232;30.540;2023-04-01T00:40:41;99137.59;;;14.05;100.00
49801;BME280;35698;50.232;30.540;2023-04-01T00:41:52;99141.61;;;13.81;100.00
49801;BME280;35698;50.232;30.540;2023-04-01T00:42:55;99137.14;;;13.81;100.00
49801;BME280;35698;50.232;30.540;2023-04-01T00:44:17;99144.72;;;13.55;100.00
49801;BME280;35698;50.232;30.540;2023-04-01T00:45:48;99140.36;;;13.85;100.00
49801;BME280;35698;50.232;30.540;2023-04-01T00:46:52;99146.52;;;13.95;100.00
49801;BME280;35698;50.232;30.540;2023-04-01T00:50:50;99141.74;;;13.89;100.00
49801;BME280;35698;50.232;30.540;2023-04-01T00:53:25;99138.81;;;13.92;100.00
49801;BME280;35698;50.232;30.540;2023-04-01T00:54:37;99141.20;;;13.95;100.00
49801;BME280;35698;50.232;30.540;2023-04-01T00:55:45;99132.80;;;13.80;100.00
49801;BME280;35698;50.232;30.540;2023-04-01T00:57:02;99141.74;;;13.89;100.00
49801;BME280;35698;50.232;30.540;2023-04-01T00:58:09;99138.82;;;13.82;100.00
49801;BME280;35698;50.232;30.540;2023-04-01T00:59:26;99143.18;;;14.02;100.00
49801;BME280;35698;50.232;30.540;2023-04-01T01:00:27;99143.29;;;13.91;100.00
49801;BME280;35698;50.232;30.540;2023-04-01T01:01:41;99146.67;;;14.03;100.00
49801;BME280;35698;50.232;30.540;2023-04-01T01:02:45;99146.78;;;13.92;100.00
49801;BME280;35698;50.232;30.540;2023-04-01T01:03:50;99146.11;;;13.99;100.00
49801;BME280;35698;50.232;30.540;2023-04-01T01:05:13;99141.52;;;14.11;100.00
49801;BME280;35698;50.232;30.540;2023-04-01T01:07:59;99142.23;;;14.13;100.00
49801;BME280;35698;50.232;30.540;2023-04-01T01:09:31;99137.06;;;14.21;100.00
49801;BME280;35698;50.232;30.540;2023-04-01T01:10:37;99137.05;;;14.11;100.00
49801;BME280;35698;50.232;30.540;2023-04-01T01:16:34;99137.06;;;14.21;100.00
49801;BME280;35698;50.232;30.540;2023-04-01T01:26:05;99145.47;;;14.26;100.00
49801;BME280;35698;50.232;30.540;2023-04-01T01:27:23;99148.25;;;13.65;100.00
49801;BME280;35698;50.232;30.540;2023-04-01T01:31:26;99154.45;;;13.45;100.00
49801;BME280;35698;50.232;30.540;2023-04-01T01:33:10;99153.92;;;13.51;100.00
49801;BME280;35698;50.232;30.540;2023-04-01T01:34:40;99157.41;;;13.52;100.00
49801;BME280;35698;50.232;30.540;2023-04-01T01:35:50;99158.16;;;13.33;100.00
49801;BME280;35698;50.232;30.540;2023-04-01T01:37:17;99158.88;;;12.93;100.00
49801;BME280;35698;50.232;30.540;2023-04-01T01:38:32;99160.48;;;13.26;100.00
49801;BME280;35698;50.232;30.540;2023-04-01T01:39:37;99164.69;;;13.29;100.00
49801;BME280;35698;50.232;30.540;2023-04-01T01:41:19;99161.95;;;13.40;100.00
49801;BME280;35698;50.232;30.540;2023-04-01T01:42:28;99165.50;;;13.08;100.00
49801;BME280;35698;50.232;30.540;2023-04-01T01:43:52;99164.02;;;13.16;100.00
49801;BME280;35698;50.232;30.540;2023-04-01T01:45:06;99166.95;;;13.33;100.00
49801;BME280;35698;50.232;30.540;2023-04-01T01:46:15;99171.80;;;13.28;100.00
49801;BME280;35698;50.232;30.540;2023-04-01T01:47:28;99171.80;;;13.28;100.00
49801;BME280;35698;50.232;30.540;2023-04-01T01:48:33;99161.72;;;13.22;100.00
49801;BME280;35698;50.232;30.540;2023-04-01T01:49:40;99163.27;;;13.25;100.00
49801;BME280;35698;50.232;30.540;2023-04-01T01:50:53;99163.19;;;13.36;100.00
49801;BME280;35698;50.232;30.540;2023-04-01T01:51:57;99160.48;;;13.26;100.00
49801;BME280;35698;50.232;30.540;2023-04-01T01:53:11;99161.33;;;13.27;100.00
49801;BME280;35698;50.232;30.540;2023-04-01T01:54:16;99163.14;;;13.26;100.00
49801;BME280;35698;50.232;30.540;2023-04-01T01:55:29;99164.56;;;13.30;100.00
49801;BME280;35698;50.232;30.540;2023-04-01T01:56:34;99163.14;;;13.26;100.00
49801;BME280;35698;50.232;30.540;2023-04-01T01:57:59;99166.34;;;13.09;100.00
49801;BME280;35698;50.232;30.540;2023-04-01T01:59:08;99152.77;;;13.02;100.00
49801;BME280;35698;50.232;30.540;2023-04-01T02:00:14;99166.57;;;13.17;100.00
49801;BME280;35698;50.232;30.540;2023-04-01T02:01:24;99159.91;;;13.23;100.00
49801;BME280;35698;50.232;30.540;2023-04-01T02:02:36;99155.42;;;13.44;100.00
49801;BME280;35698;50.232;30.540;2023-04-01T02:03:39;99168.95;;;13.41;100.00
49801;BME280;35698;50.232;30.540;2023-04-01T02:04:46;99167.84;;;13.43;100.00
49801;BME280;35698;50.232;30.540;2023-04-01T02:05:51;99159.94;;;13.53;100.00
49801;BME280;35698;50.232;30.540;2023-04-01T02:07:09;99166.83;;;13.65;100.00
49801;BME280;35698;50.232;30.540;2023-04-01T02:08:16;99165.38;;;13.52;100.00
49801;BME280;35698;50.232;30.540;2023-04-01T02:09:20;99160.86;;;13.73;100.00
49801;BME280;35698;50.232;30.540;2023-04-01T02:10:25;99165.02;;;13.66;100.00
49801;BME280;35698;50.232;30.540;2023-04-01T02:12:56;99167.84;;;13.43;100.00
49801;BME280;35698;50.232;30.540;2023-04-01T02:15:26;99157.36;;;13.72;100.00
49801;BME280;35698;50.232;30.540;2023-04-01T02:16:37;99160.06;;;13.52;100.00
49801;BME280;35698;50.232;30.540;2023-04-01T02:17:49;99169.26;;;13.48;100.00
49801;BME280;35698;50.232;30.540;2023-04-01T02:18:54;99163.19;;;13.36;100.00
49801;BME280;35698;50.232;30.540;2023-04-01T02:20:07;99157.94;;;13.45;100.00
49801;BME280;35698;50.232;30.540;2023-04-01T02:21:21;99169.05;;;13.60;100.00
49801;BME280;35698;50.232;30.540;2023-04-01T02:22:31;99161.79;;;13.62;100.00
49801;BME280;35698;50.232;30.540;2023-04-01T02:23:43;99166.83;;;13.65;100.00
49801;BME280;35698;50.232;30.540;2023-04-01T02:24:49;99165.81;;;13.57;100.00
49801;BME280;35698;50.232;30.540;2023-04-01T02:25:54;99166.92;;;13.54;100.00
49801;BME280;35698;50.232;30.540;2023-04-01T02:26:58;99161.22;;;13.59;100.00
49801;BME280;35698;50.232;30.540;2023-04-01T02:28:10;99170.41;;;13.55;100.00
49801;BME280;35698;50.232;30.540;2023-04-01T02:29:18;99166.92;;;13.54;100.00
49801;BME280;35698;50.232;30.540;2023-04-01T02:30:32;99170.55;;;13.53;100.00
49801;BME280;35698;50.232;30.540;2023-04-01T02:31:36;99168.86;;;13.52;100.00
49801;BME280;35698;50.232;30.540;2023-04-01T02:32:48;99169.66;;;13.43;100.00
49801;BME280;35698;50.232;30.540;2023-04-01T02:33:52;99178.01;;;13.38;100.00
49801;BME280;35698;50.232;30.540;2023-04-01T02:35:27;99171.78;;;13.49;100.00
49801;BME280;35698;50.232;30.540;2023-04-01T02:36:32;99173.73;;;13.47;100.00
49801;BME280;35698;50.232;30.540;2023-04-01T02:37:35;99172.88;;;13.47;100.00
49801;BME280;35698;50.232;30.540;2023-04-01T02:38:56;99172.98;;;13.66;100.00
49801;BME280;35698;50.232;30.540;2023-04-01T02:40:02;99167.89;;;13.53;100.00
49801;BME280;35698;50.232;30.540;2023-04-01T02:41:24;99168.47;;;13.57;100.00
49801;BME280;35698;50.232;30.540;2023-04-01T02:42:35;99165.59;;;13.69;100.00
49801;BME280;35698;50.232;30.540;2023-04-01T02:43:39;99170.15;;;13.58;100.00
49801;BME280;35698;50.232;30.540;2023-04-01T02:45:00;99164.31;;;13.64;100.00
49801;BME280;35698;50.232;30.540;2023-04-01T02:46:04;99164.53;;;13.51;100.00
49801;BME280;35698;50.232;30.540;2023-04-01T02:47:07;99169.52;;;13.44;100.00
49801;BME280;35698;50.232;30.540;2023-04-01T02:48:18;99167.19;;;13.51;100.00
49801;BME280;35698;50.232;30.540;2023-04-01T02:49:22;99162.32;;;13.56;100.00
49801;BME280;35698;50.232;30.540;2023-04-01T02:50:43;99166.52;;;13.59;100.00
49801;BME280;35698;50.232;30.540;2023-04-01T02:51:54;99173.25;;;13.63;100.00
49801;BME280;35698;50.232;30.540;2023-04-01T02:52:57;99161.79;;;13.62;100.00
49801;BME280;35698;50.232;30.540;2023-04-01T02:54:19;99173.42;;;13.71;100.00
49801;BME280;35698;50.232;30.540;2023-04-01T02:55:25;99172.84;;;13.67;100.00
49801;BME280;35698;50.232;30.540;2023-04-01T02:56:36;99171.08;;;13.77;100.00
49801;BME280;35698;50.232;30.540;2023-04-01T02:57:39;99166.97;;;13.64;100.00
49801;BME280;35698;50.232;30.540;2023-04-01T02:59:00;99164.74;;;13.38;100.00
49801;BME280;35698;50.232;30.540;2023-04-01T03:00:04;99170.94;;;13.49;100.00
49801;BME280;35698;50.232;30.540;2023-04-01T03:01:16;99175.27;;;13.50;100.00
49801;BME280;35698;50.232;30.540;2023-04-01T03:02:19;99160.91;;;13.52;100.00
49801;BME280;35698;50.232;30.540;2023-04-01T03:03:41;99160.11;;;13.61;100.00
49801;BME280;35698;50.232;30.540;2023-04-01T03:04:44;99164.31;;;13.64;100.00
49801;BME280;35698;50.232;30.540;2023-04-01T03:06:07;99169.13;;;13.49;100.00
49801;BME280;35698;50.232;30.540;2023-04-01T03:07:29;99169.70;;;13.53;100.00
49801;BME280;35698;50.232;30.540;2023-04-01T03:08:40;99166.52;;;13.59;100.00
49801;BME280;35698;50.232;30.540;2023-04-01T03:09:44;99168.95;;;13.41;100.00
49801;BME280;35698;50.232;30.540;2023-04-01T03:10:55;99169.44;;;13.56;100.00
49801;BME280;35698;50.232;30.540;2023-04-01T03:12:02;99162.45;;;13.55;100.00
49801;BME280;35698;50.232;30.540;2023-04-01T03:13:05;99174.75;;;13.56;100.00
49801;BME280;35698;50.232;30.540;2023-04-01T03:14:08;99174.44;;;13.49;100.00
49801;BME280;35698;50.232;30.540;2023-04-01T03:15:30;99175.53;;;13.47;100.00
49801;BME280;35698;50.232;30.540;2023-04-01T03:16:51;99170.63;;;13.42;100.00
49801;BME280;35698;50.232;30.540;2023-04-01T03:18:12;99172.36;;;13.53;100.00
49801;BME280;35698;50.232;30.540;2023-04-01T03:19:15;99172.14;;;13.65;100.00
49801;BME280;35698;50.232;30.540;2023-04-01T03:20:26;99172.09;;;13.86;100.00
49801;BME280;35698;50.232;30.540;2023-04-01T03:21:30;99175.01;;;13.83;100.00
49801;BME280;35698;50.232;30.540;2023-04-01T03:22:41;99165.90;;;13.76;100.00
49801;BME280;35698;50.232;30.540;2023-04-01T03:23:46;99164.92;;;13.77;100.00
49801;BME280;35698;50.232;30.540;2023-04-01T03:24:49;99165.95;;;13.55;100.00
49801;BME280;35698;50.232;30.540;2023-04-01T03:26:00;99172.72;;;13.69;100.00
49801;BME280;35698;50.232;30.540;2023-04-01T03:27:04;99167.67;;;13.66;100.00
49801;BME280;35698;50.232;30.540;2023-04-01T03:28:15;99162.94;;;13.69;100.00
49801;BME280;35698;50.232;30.540;2023-04-01T03:29:18;99160.64;;;13.55;100.00
49801;BME280;35698;50.232;30.540;2023-04-01T03:30:22;99162.05;;;13.59;100.00
49801;BME280;35698;50.232;30.540;2023-04-01T03:31:33;99161.13;;;13.70;100.00
49801;BME280;35698;50.232;30.540;2023-04-01T03:32:36;99157.85;;;13.57;100.00
49801;BME280;35698;50.232;30.540;2023-04-01T03:33:47;99164.45;;;13.62;100.00
49801;BME280;35698;50.232;30.540;2023-04-01T03:34:50;99164.45;;;13.62;100.00
49801;BME280;35698;50.232;30.540;2023-04-01T03:35:54;99172.00;;;13.67;100.00
49801;BME280;35698;50.232;30.540;2023-04-01T03:37:15;99166.20;;;13.92;100.00
49801;BME280;35698;50.232;30.540;2023-04-01T03:38:26;99174.03;;;13.84;100.00
49801;BME280;35698;50.232;30.540;2023-04-01T03:39:31;99175.50;;;13.67;100.00
49801;BME280;35698;50.232;30.540;2023-04-01T03:40:43;99186.17;;;13.87;100.00
49801;BME280;35698;50.232;30.540;2023-04-01T03:41:46;99183.10;;;13.82;100.00
49801;BME280;35698;50.232;30.540;2023-04-01T03:43:00;99174.47;;;13.99;100.00
49801;BME280;35698;50.232;30.540;2023-04-01T03:44:04;99183.10;;;13.82;100.00
49801;BME280;35698;50.232;30.540;2023-04-01T03:45:25;99186.17;;;13.87;100.00
49801;BME280;35698;50.232;30.540;2023-04-01T03:46:47;99178.16;;;13.67;100.00
49801;BME280;35698;50.232;30.540;2023-04-01T03:47:58;99177.63;;;13.73;100.00
49801;BME280;35698;50.232;30.540;2023-04-01T03:49:02;99184.13;;;13.60;100.00
49801;BME280;35698;50.232;30.540;2023-04-01T03:50:24;99187.35;;;13.63;100.00
49801;BME280;35698;50.232;30.540;2023-04-01T03:51:45;99194.03;;;13.58;100.00
49801;BME280;35698;50.232;30.540;2023-04-01T03:52:56;99191.42;;;13.67;100.00
49801;BME280;35698;50.232;30.540;2023-04-01T03:53:59;99196.16;;;13.64;100.00
49801;BME280;35698;50.232;30.540;2023-04-01T03:55:21;99203.72;;;13.68;100.00
49801;BME280;35698;50.232;30.540;2023-04-01T03:56:42;99196.28;;;13.62;100.00
49801;BME280;35698;50.232;30.540;2023-04-01T03:57:53;99197.48;;;13.79;100.00
49801;BME280;35698;50.232;30.540;2023-04-01T03:58:56;99194.83;;;13.79;100.00
49801;BME280;35698;50.232;30.540;2023-04-01T04:00:18;99201.55;;;13.83;100.00
49801;BME280;35698;50.232;30.540;2023-04-01T04:01:24;99206.24;;;13.70;100.00
49801;BME280;35698;50.232;30.540;2023-04-01T04:02:35;99207.00;;;13.91;100.00
49801;BME280;35698;50.232;30.540;2023-04-01T04:03:39;99197.62;;;13.87;100.00
49801;BME280;35698;50.232;30.540;2023-04-01T04:05:01;99216.77;;;13.81;100.00
49801;BME280;35698;50.232;30.540;2023-04-01T04:06:04;99212.71;;;13.87;100.00
49801;BME280;35698;50.232;30.540;2023-04-01T04:07:15;99199.88;;;13.92;100.00
49801;BME280;35698;50.232;30.540;2023-04-01T04:08:19;99203.50;;;13.81;100.00
49801;BME280;35698;50.232;30.540;2023-04-01T04:09:40;99203.23;;;13.84;100.00
49801;BME280;35698;50.232;30.540;2023-04-01T04:10:44;99213.29;;;13.90;100.00
49801;BME280;35698;50.232;30.540;2023-04-01T04:11:55;99204.08;;;13.94;100.00
49801;BME280;35698;50.232;30.540;2023-04-01T04:12:58;99208.77;;;13.71;100.00
49801;BME280;35698;50.232;30.540;2023-04-01T04:14:01;99207.97;;;13.81;100.00
49801;BME280;35698;50.232;30.540;2023-04-01T04:15:06;99211.47;;;13.91;100.00
49801;BME280;35698;50.232;30.540;2023-04-01T04:16:11;99202.27;;;13.95;100.00
49801;BME280;35698;50.232;30.540;2023-04-01T04:17:21;99210.84;;;14.08;100.00
49801;BME280;35698;50.232;30.540;2023-04-01T04:18:25;99199.88;;;13.82;100.00
49801;BME280;35698;50.232;30.540;2023-04-01T04:19:33;99207.27;;;13.88;100.00
49801;BME280;35698;50.232;30.540;2023-04-01T04:20:46;99214.03;;;14.02;99.99
49801;BME280;35698;50.232;30.540;2023-04-01T04:22:16;99221.46;;;14.08;100.00
49801;BME280;35698;50.232;30.540;2023-04-01T04:23:20;99218.06;;;13.96;100.00
49801;BME280;35698;50.232;30.540;2023-04-01T04:24:50;99221.73;;;14.05;99.79
49801;BME280;35698;50.232;30.540;2023-04-01T04:27:11;99210.50;;;13.92;100.00
49801;BME280;35698;50.232;30.540;2023-04-01T04:29:43;99211.47;;;13.91;99.94
49801;BME280;35698;50.232;30.540;2023-04-01T04:30:47;99215.23;;;13.88;99.61
49801;BME280;35698;50.232;30.540;2023-04-01T04:31:58;99212.45;;;13.90;99.30
49801;BME280;35698;50.232;30.540;2023-04-01T04:33:01;99210.45;;;13.72;99.73
49801;BME280;35698;50.232;30.540;2023-04-01T04:34:05;99214.02;;;13.62;100.00
49801;BME280;35698;50.232;30.540;2023-04-01T04:35:16;99213.28;;;13.81;100.00
49801;BME280;35698;50.232;30.540;2023-04-01T04:36:39;99211.50;;;13.60;100.00
49801;BME280;35698;50.232;30.540;2023-04-01T04:37:42;99210.66;;;13.60;100.00
49801;BME280;35698;50.232;30.540;2023-04-01T04:38:46;99215.05;;;13.70;100.00
49801;BME280;35698;50.232;30.540;2023-04-01T04:39:49;99214.91;;;13.72;100.00
49801;BME280;35698;50.232;30.540;2023-04-01T04:40:53;99208.81;;;13.81;100.00
49801;BME280;35698;50.232;30.540;2023-04-01T04:42:05;99204.39;;;14.01;100.00
49801;BME280;35698;50.232;30.540;2023-04-01T04:43:11;99212.62;;;13.98;99.86
49801;BME280;35698;50.232;30.540;2023-04-01T04:44:22;99210.27;;;14.04;99.65
49801;BME280;35698;50.232;30.540;2023-04-01T04:45:44;99210.36;;;13.93;98.39
49801;BME280;35698;50.232;30.540;2023-04-01T04:46:55;99201.36;;;14.15;99.71
49801;BME280;35698;50.232;30.540;2023-04-01T04:48:01;99211.00;;;14.16;99.77
49801;BME280;35698;50.232;30.540;2023-04-01T04:49:22;99213.39;;;14.19;97.21
49801;BME280;35698;50.232;30.540;2023-04-01T04:50:25;99200.95;;;14.20;97.73
49801;BME280;35698;50.232;30.540;2023-04-01T04:51:36;99209.31;;;14.55;97.81
49801;BME280;35698;50.232;30.540;2023-04-01T04:52:44;99205.75;;;14.35;98.12
49801;BME280;35698;50.232;30.540;2023-04-01T04:54:09;99206.36;;;14.49;97.61
49801;BME280;35698;50.232;30.540;2023-04-01T04:55:20;99196.45;;;14.70;96.34
49801;BME280;35698;50.232;30.540;2023-04-01T04:56:23;99204.70;;;14.67;95.48
49801;BME280;35698;50.232;30.540;2023-04-01T04:57:45;99196.73;;;14.67;93.65
49801;BME280;35698;50.232;30.540;2023-04-01T04:58:56;99198.80;;;14.83;94.25
49801;BME280;35698;50.232;30.540;2023-04-01T04:59:59;99205.97;;;14.72;94.67
49801;BME280;35698;50.232;30.540;2023-04-01T05:01:23;99202.73;;;14.79;93.92
49801;BME280;35698;50.232;30.540;2023-04-01T05:02:45;99207.34;;;14.76;93.15
49801;BME280;35698;50.232;30.540;2023-04-01T05:04:06;99213.22;;;14.90;94.07
49801;BME280;35698;50.232;30.540;2023-04-01T05:05:17;99212.09;;;15.12;92.82
49801;BME280;35698;50.232;30.540;2023-04-01T05:06:20;99211.27;;;15.01;90.69
49801;BME280;35698;50.232;30.540;2023-04-01T05:07:42;99208.74;;;15.00;90.23
49801;BME280;35698;50.232;30.540;2023-04-01T05:09:03;99205.53;;;14.87;90.52
49801;BME280;35698;50.232;30.540;2023-04-01T05:10:25;99201.75;;;14.89;89.98
49801;BME280;35698;50.232;30.540;2023-04-01T05:11:28;99206.64;;;14.94;90.71
49801;BME280;35698;50.232;30.540;2023-04-01T05:12:32;99196.57;;;14.97;89.90
49801;BME280;35698;50.232;30.540;2023-04-01T05:13:55;99205.80;;;14.93;89.31
49801;BME280;35698;50.232;30.540;2023-04-01T05:14:58;99205.66;;;15.04;88.95
49801;BME280;35698;50.232;30.540;2023-04-01T05:16:17;99191.64;;;15.22;88.70
49801;BME280;35698;50.232;30.540;2023-04-01T05:17:21;99193.48;;;15.12;89.14
49801;BME280;35698;50.232;30.540;2023-04-01T05:18:32;99201.13;;;15.44;89.18
49801;BME280;35698;50.232;30.540;2023-04-01T05:19:36;99191.89;;;15.38;87.31
49801;BME280;35698;50.232;30.540;2023-04-01T05:20:39;99189.39;;;15.27;87.52
49801;BME280;35698;50.232;30.540;2023-04-01T05:22:00;99188.27;;;15.29;87.67
49801;BME280;35698;50.232;30.540;2023-04-01T05:23:11;99200.98;;;15.45;86.82
49801;BME280;35698;50.232;30.540;2023-04-01T05:24:15;99199.05;;;15.28;87.15
49801;BME280;35698;50.232;30.540;2023-04-01T05:25:26;99202.69;;;15.36;87.83
49801;BME280;35698;50.232;30.540;2023-04-01T05:26:30;99198.09;;;15.19;88.03
49801;BME280;35698;50.232;30.540;2023-04-01T05:27:44;99201.30;;;15.23;86.71
49801;BME280;35698;50.232;30.540;2023-04-01T05:28:47;99199.22;;;15.17;88.00
49801;BME280;35698;50.232;30.540;2023-04-01T05:29:58;99209.55;;;15.39;88.47
49801;BME280;35698;50.232;30.540;2023-04-01T05:31:03;99204.79;;;15.33;86.13
49801;BME280;35698;50.232;30.540;2023-04-01T05:32:07;99203.95;;;15.32;85.44
49801;BME280;35698;50.232;30.540;2023-04-01T05:33:18;99200.70;;;15.48;86.99
49801;BME280;35698;50.232;30.540;2023-04-01T05:34:21;99196.09;;;15.40;86.32
49801;BME280;35698;50.232;30.540;2023-04-01T05:35:32;99201.11;;;15.53;86.43
49801;BME280;35698;50.232;30.540;2023-04-01T05:36:36;99199.30;;;15.44;85.56
49801;BME280;35698;50.232;30.540;2023-04-01T05:37:50;99197.14;;;15.67;84.88
49801;BME280;35698;50.232;30.540;2023-04-01T05:38:56;99208.68;;;15.48;85.69
49801;BME280;35698;50.232;30.540;2023-04-01T05:40:18;99208.25;;;15.53;84.55
49801;BME280;35698;50.232;30.540;2023-04-01T05:41:29;99206.03;;;15.58;84.49
49801;BME280;35698;50.232;30.540;2023-04-01T05:42:33;99214.02;;;15.38;84.55
49801;BME280;35698;50.232;30.540;2023-04-01T05:44:58;99210.37;;;15.59;84.85
49801;BME280;35698;50.232;30.540;2023-04-01T05:46:02;99210.36;;;15.49;84.60
49801;BME280;35698;50.232;30.540;2023-04-01T05:47:10;99210.89;;;15.62;84.27
49801;BME280;35698;50.232;30.540;2023-04-01T05:48:13;99220.55;;;15.63;84.46
49801;BME280;35698;50.232;30.540;2023-04-01T05:49:17;99217.60;;;15.66;85.24
49801;BME280;35698;50.232;30.540;2023-04-01T05:50:20;99219.69;;;15.72;83.49
49801;BME280;35698;50.232;30.540;2023-04-01T05:51:32;99220.49;;;15.83;82.62
49801;BME280;35698;50.232;30.540;2023-04-01T05:52:35;99218.70;;;15.73;82.27
49801;BME280;35698;50.232;30.540;2023-04-01T05:53:56;99226.42;;;15.67;82.63
49801;BME280;35698;50.232;30.540;2023-04-01T05:55:08;99220.38;;;15.74;83.35
49801;BME280;35698;50.232;30.540;2023-04-01T05:56:12;99226.86;;;15.62;82.98
49801;BME280;35698;50.232;30.540;2023-04-01T05:57:34;99223.09;;;15.55;83.33
49801;BME280;35698;50.232;30.540;2023-04-01T05:58:51;99222.09;;;15.66;83.54
49801;BME280;35698;50.232;30.540;2023-04-01T05:59:55;99222.92;;;15.66;82.96
49801;BME280;35698;50.232;30.540;2023-04-01T06:01:16;99219.25;;;15.77;82.42
49801;BME280;35698;50.232;30.540;2023-04-01T06:02:27;99224.17;;;16.09;81.62
49801;BME280;35698;50.232;30.540;2023-04-01T06:03:31;99220.86;;;15.97;80.38
49801;BME280;35698;50.232;30.540;2023-04-01T06:05:00;99214.73;;;15.87;81.06
49801;BME280;35698;50.232;30.540;2023-04-01T06:06:16;99218.78;;;15.91;80.24
49801;BME280;35698;50.232;30.540;2023-04-01T06:07:20;99218.63;;;15.93;80.75
49801;BME280;35698;50.232;30.540;2023-04-01T06:08:31;99223.04;;;16.12;80.00
49801;BME280;35698;50.232;30.540;2023-04-01T06:09:45;99221.11;;;16.04;80.51
49801;BME280;35698;50.232;30.540;2023-04-01T06:14:15;99220.56;;;16.00;79.75
49801;BME280;35698;50.232;30.540;2023-04-01T06:19:54;99215.09;;;16.02;80.91
49801;BME280;35698;50.232;30.540;2023-04-01T06:31:25;99230.45;;;15.81;79.86
49801;BME280;35698;50.232;30.540;2023-04-01T06:36:11;99221.47;;;16.19;79.52
49801;BME280;35698;50.232;30.540;2023-04-01T06:37:44;99213.72;;;16.25;80.02
49801;BME280;35698;50.232;30.540;2023-04-01T06:42:36;99215.63;;;16.78;78.14
49801;BME280;35698;50.232;30.540;2023-04-01T06:54:58;99222.55;;;16.71;75.36
49801;BME280;35698;50.232;30.540;2023-04-01T06:56:15;99223.32;;;16.99;74.75
49801;BME280;35698;50.232;30.540;2023-04-01T06:57:49;99221.02;;;17.22;75.00
49801;BME280;35698;50.232;30.540;2023-04-01T06:59:02;99225.83;;;17.18;75.09
49801;BME280;35698;50.232;30.540;2023-04-01T07:00:30;99226.42;;;17.30;74.02
49801;BME280;35698;50.232;30.540;2023-04-01T07:01:50;99218.97;;;17.42;72.91
49801;BME280;35698;50.232;30.540;2023-04-01T07:03:13;99227.76;;;17.34;72.44
49801;BME280;35698;50.232;30.540;2023-04-01T07:04:34;99223.16;;;17.18;72.43
49801;BME280;35698;50.232;30.540;2023-04-01T07:05:46;99225.45;;;17.39;73.69
49801;BME280;35698;50.232;30.540;2023-04-01T07:06:59;99225.67;;;17.20;71.54
49801;BME280;35698;50.232;30.540;2023-04-01T07:08:23;99234.14;;;17.15;72.02
49801;BME280;35698;50.232;30.540;2023-04-01T07:09:51;99223.70;;;17.04;72.20
49801;BME280;35698;50.232;30.540;2023-04-01T07:11:06;99234.73;;;17.27;72.49
49801;BME280;35698;50.232;30.540;2023-04-01T07:13:55;99233.23;;;17.07;72.91
49801;BME280;35698;50.232;30.540;2023-04-01T07:16:51;99228.19;;;17.47;72.30
49801;BME280;35698;50.232;30.540;2023-04-01T07:18:05;99221.70;;;17.50;72.30
49801;BME280;35698;50.232;30.540;2023-04-01T07:21:09;99213.92;;;17.82;70.24
49801;BME280;35698;50.232;30.540;2023-04-01T07:22:34;99211.81;;;17.94;71.30
49801;BME280;35698;50.232;30.540;2023-04-01T07:23:41;99211.81;;;17.94;72.43
49801;BME280;35698;50.232;30.540;2023-04-01T07:24:53;99218.75;;;18.13;71.71
49801;BME280;35698;50.232;30.540;2023-04-01T07:26:04;99223.27;;;18.12;70.94
49801;BME280;35698;50.232;30.540;2023-04-01T07:27:14;99217.31;;;18.34;69.65
49801;BME280;35698;50.232;30.540;2023-04-01T07:28:17;99221.47;;;18.29;69.77
49801;BME280;35698;50.232;30.540;2023-04-01T07:29:28;99216.52;;;18.50;69.42
49801;BME280;35698;50.232;30.540;2023-04-01T07:32:21;99214.36;;;18.54;68.02
49801;BME280;35698;50.232;30.540;2023-04-01T07:33:30;99212.01;;;18.51;67.80
49801;BME280;35698;50.232;30.540;2023-04-01T07:35:02;99207.41;;;18.69;68.22
49801;BME280;35698;50.232;30.540;2023-04-01T07:36:14;99211.75;;;18.70;68.27
49801;BME280;35698;50.232;30.540;2023-04-01T07:42:05;99205.27;;;18.89;65.90
49801;BME280;35698;50.232;30.540;2023-04-01T07:45:10;99208.44;;;18.84;66.17
49801;BME280;35698;50.232;30.540;2023-04-01T07:46:53;99205.10;;;18.98;65.61
49801;BME280;35698;50.232;30.540;2023-04-01T07:51:00;99214.77;;;18.75;65.38
49801;BME280;35698;50.232;30.540;2023-04-01T07:52:08;99212.62;;;18.87;65.03
49801;BME280;35698;50.232;30.540;2023-04-01T07:56:11;99215.63;;;18.84;64.47
49801;BME280;35698;50.232;30.540;2023-04-01T08:03:16;99226.64;;;18.73;66.04
49801;BME280;35698;50.232;30.540;2023-04-01T08:16:35;99255.20;;;18.64;64.23
49801;BME280;35698;50.232;30.540;2023-04-01T08:24:33;99264.14;;;18.47;64.41